Time;durP1;ratioP1;P1;durP2;ratioP2;P2;SDS_P1;SDS_P2;PMS_P1;PMS_P2;Temp;Humidity;BMP_temperature;BMP_pressure;BME280_temperature;BME280_humidity;BME280_pressure;Samples;Min_cycle;Max_cycle;Signal;HPM_P1;HPM_P2
2022/08/06 00:00:38;;;;;;;8.00;7.18;;;;;;;25.16;63.94;100324.56;5036948;28;20032;-81
2022/08/06 00:03:03;;;;;;;7.88;6.40;;;;;;;25.18;63.89;100336.19;5037295;28;20025;-82
2022/08/06 00:05:29;;;;;;;14.13;7.50;;;;;;;25.15;64.23;100320.13;5031842;28;20021;-81
2022/08/06 00:07:56;;;;;;;13.00;7.93;;;;;;;25.12;64.68;100323.31;4999537;28;20029;-81
2022/08/06 00:10:22;;;;;;;12.15;7.00;;;;;;;25.05;64.83;100326.13;5016638;28;20111;-82
2022/08/06 00:12:48;;;;;;;10.00;7.13;;;;;;;24.98;64.94;100319.03;5015783;28;20523;-82
2022/08/06 00:15:13;;;;;;;12.63;7.95;;;;;;;24.91;65.00;100305.31;5016271;28;20488;-82
2022/08/06 00:17:39;;;;;;;11.27;7.22;;;;;;;24.95;64.80;100322.22;5015905;28;20049;-82
2022/08/06 00:20:06;;;;;;;10.95;6.63;;;;;;;24.92;64.64;100318.84;5016670;28;20396;-83
2022/08/06 00:22:32;;;;;;;14.15;8.32;;;;;;;24.87;65.12;100315.94;5015805;28;20033;-81
2022/08/06 00:24:57;;;;;;;12.45;7.68;;;;;;;24.89;65.13;100319.28;5015955;28;20022;-81
2022/08/06 00:27:23;;;;;;;15.20;7.32;;;;;;;24.87;65.12;100315.94;4998700;28;20022;-82
2022/08/06 00:29:49;;;;;;;13.63;6.57;;;;;;;24.85;65.13;100312.56;5016751;28;20104;-80
2022/08/06 00:32:15;;;;;;;8.00;6.82;;;;;;;24.83;64.90;100311.94;4998774;28;20018;-82
2022/08/06 00:34:41;;;;;;;8.82;6.72;;;;;;;24.85;64.63;100306.22;5016843;28;20056;-80
2022/08/06 00:37:06;;;;;;;9.40;6.90;;;;;;;24.85;64.05;100317.22;4999128;28;20030;-81
2022/08/06 00:39:31;;;;;;;11.60;7.28;;;;;;;24.79;64.13;100310.69;5016783;28;20118;-81
2022/08/06 00:41:57;;;;;;;17.08;7.35;;;;;;;24.80;64.40;100314.25;5005404;28;20045;-81
2022/08/06 00:44:22;;;;;;;11.15;7.53;;;;;;;24.70;64.58;100292.78;5015985;28;20030;-80
2022/08/06 00:46:49;;;;;;;7.93;7.00;;;;;;;24.77;64.63;100315.56;5015455;28;20029;-80
2022/08/06 00:49:14;;;;;;;15.18;8.52;;;;;;;24.75;64.98;100309.44;5032301;28;20032;-82
2022/08/06 00:51:41;;;;;;;14.93;9.25;;;;;;;24.77;65.32;100310.06;5035075;28;20407;-81
2022/08/06 00:54:06;;;;;;;14.95;8.93;;;;;;;24.78;65.56;100306.25;5035816;28;20164;-82
2022/08/06 00:56:32;;;;;;;12.30;9.82;;;;;;;24.76;66.02;100313.91;5024629;28;20459;-82
2022/08/06 00:58:57;;;;;;;15.77;11.00;;;;;;;24.72;66.42;100311.78;5015021;28;20033;-81
2022/08/06 01:01:23;;;;;;;18.60;11.50;;;;;;;24.78;66.71;100305.41;5015312;28;20026;-82
2022/08/06 01:03:48;;;;;;;18.83;11.82;;;;;;;24.75;67.24;100312.19;4998542;28;20026;-82
2022/08/06 01:06:14;;;;;;;27.27;12.25;;;;;;;24.66;68.00;100307.19;5015433;28;20028;-82
2022/08/06 01:08:40;;;;;;;22.05;12.30;;;;;;;24.72;67.91;100318.16;5028051;28;20399;-81
2022/08/06 01:11:05;;;;;;;20.70;13.70;;;;;;;24.70;68.00;100309.28;5035733;28;20152;-81
2022/08/06 01:13:31;;;;;;;22.70;13.38;;;;;;;24.73;68.20;100308.84;5034279;28;20026;-81
2022/08/06 01:16:33;;;;;;;26.00;13.95;;;;;;;24.75;68.58;100317.69;5033947;28;20399;-82
2022/08/06 01:19:17;;;;;;;;;;;;;;;24.74;68.68;100312.41;5013338;28;20030;-80
2022/08/06 01:22:13;;;;;;;21.00;14.95;;;;;;;24.70;69.60;100314.78;5014404;28;19977;-81
2022/08/06 01:25:23;;;;;;;21.10;15.32;;;;;;;24.67;69.90;100315.25;5014308;28;20022;-81
2022/08/06 01:28:12;;;;;;;25.20;14.52;;;;;;;24.63;69.97;100314.00;4954321;29;20027;-81
2022/08/06 01:30:46;;;;;;;33.95;15.73;;;;;;;24.59;70.17;100306.41;4995553;28;20413;-81
2022/08/06 01:33:45;;;;;;;29.20;15.65;;;;;;;24.54;70.33;100300.72;4995942;28;20081;-81
2022/08/06 01:36:18;;;;;;;30.15;15.40;;;;;;;24.49;70.87;100309.66;4992768;28;20069;-83
2022/08/06 01:38:47;;;;;;;27.60;14.57;;;;;;;24.36;71.09;100304.25;4995652;28;20108;-82
2022/08/06 01:41:39;;;;;;;24.10;13.35;;;;;;;24.29;70.78;100301.56;4996143;28;20109;-82
2022/08/06 01:44:17;;;;;;;30.80;12.75;;;;;;;24.31;70.35;100298.59;4996535;28;20034;-81
2022/08/06 01:46:56;;;;;;;21.48;11.27;;;;;;;24.30;68.58;100300.50;4995814;28;20026;-82
2022/08/06 01:49:31;;;;;;;20.05;9.93;;;;;;;24.28;68.02;100304.50;4991443;28;20560;-81
2022/08/06 01:51:59;;;;;;;17.48;9.27;;;;;;;24.18;67.26;100282.19;4995128;28;20109;-80
2022/08/06 01:54:27;;;;;;;21.05;9.20;;;;;;;24.10;66.91;100285.13;5011746;28;20033;-81
2022/08/06 01:56:57;;;;;;;17.42;9.25;;;;;;;24.05;66.57;100285.81;5034195;28;20026;-80
2022/08/06 01:59:27;;;;;;;12.00;7.55;;;;;;;24.17;66.28;100296.97;5022557;28;20034;-82
2022/08/06 02:01:56;;;;;;;16.73;9.52;;;;;;;24.13;66.35;100287.47;5013204;28;20040;-81
2022/08/06 02:04:27;;;;;;;15.77;8.55;;;;;;;24.22;66.02;100294.41;5003218;28;20064;-81
2022/08/06 02:06:55;;;;;;;17.27;8.50;;;;;;;24.20;65.75;100293.78;5034038;28;20036;-81
2022/08/06 02:09:23;;;;;;;21.92;9.93;;;;;;;24.25;65.85;100300.31;5034210;28;20041;-81
2022/08/06 02:11:55;;;;;;;20.95;9.15;;;;;;;24.24;65.83;100295.03;5001797;28;20030;-81
2022/08/06 02:14:22;;;;;;;16.67;10.00;;;;;;;24.14;65.25;100280.94;5014112;28;20451;-81
2022/08/06 02:16:50;;;;;;;12.07;8.75;;;;;;;24.16;65.10;100282.38;5013012;28;20088;-81
2022/08/06 02:19:17;;;;;;;17.10;8.20;;;;;;;24.23;64.90;100290.59;5013433;28;20112;-82
2022/08/06 02:21:45;;;;;;;17.35;9.52;;;;;;;24.13;65.11;100280.09;5013649;28;20061;-81
2022/08/06 02:24:12;;;;;;;16.40;8.73;;;;;;;24.19;65.15;100283.84;5018664;28;20479;-81
2022/08/06 02:26:40;;;;;;;28.05;9.15;;;;;;;24.25;65.49;100293.94;5033063;28;20026;-82
2022/08/06 02:29:08;;;;;;;15.52;9.77;;;;;;;24.21;65.27;100281.75;5033082;28;20056;-81
2022/08/06 02:31:34;;;;;;;15.55;9.43;;;;;;;24.20;65.57;100294.63;5033904;28;20040;-81
2022/08/06 02:34:00;;;;;;;14.15;9.55;;;;;;;24.18;65.49;100301.41;5033756;28;20029;-81
2022/08/06 02:36:38;;;;;;;14.98;10.63;;;;;;;24.21;65.39;100287.25;5034772;28;20033;-82
2022/08/06 02:39:08;;;;;;;17.42;11.00;;;;;;;24.21;65.61;100293.59;5034078;28;20037;-81
2022/08/06 02:41:45;;;;;;;18.15;12.32;;;;;;;24.20;65.66;100300.13;5033954;28;20022;-82
2022/08/06 02:44:42;;;;;;;22.65;13.18;;;;;;;24.16;66.26;100289.78;5029158;28;20429;-82
2022/08/06 02:47:40;;;;;;;25.45;13.68;;;;;;;24.22;66.44;100299.91;4993709;28;20038;-82
2022/08/06 02:50:08;;;;;;;29.88;16.67;;;;;;;24.17;66.84;100296.97;5024453;28;20065;-82
2022/08/06 02:52:43;;;;;;;25.90;15.00;;;;;;;24.17;67.06;100306.06;5014088;28;20030;-81
2022/08/06 02:55:16;;;;;;;27.15;17.50;;;;;;;24.09;67.14;100288.97;5013219;28;20033;-83
2022/08/06 02:57:49;;;;;;;24.35;14.50;;;;;;;24.14;66.90;100311.16;5012779;28;20477;-81
2022/08/06 03:00:15;;;;;;;21.10;12.50;;;;;;;24.11;66.67;100314.34;4996004;28;20492;-81
2022/08/06 03:02:43;;;;;;;16.95;12.07;;;;;;;24.10;66.70;100315.38;5013979;28;20397;-82
2022/08/06 03:05:15;;;;;;;20.30;11.82;;;;;;;24.03;66.17;100309.09;5013654;28;20049;-82
2022/08/06 03:07:42;;;;;;;18.55;11.27;;;;;;;24.04;65.86;100308.00;5013366;28;20026;-82
2022/08/06 03:10:09;;;;;;;19.27;12.20;;;;;;;23.91;65.86;100281.47;5013116;28;20041;-81
2022/08/06 03:12:36;;;;;;;24.50;12.45;;;;;;;24.06;65.54;100314.16;5014432;28;20034;-82
2022/08/06 03:15:03;;;;;;;14.02;11.48;;;;;;;23.97;65.25;100312.72;5017541;28;20024;-82
2022/08/06 03:17:31;;;;;;;13.60;10.52;;;;;;;23.96;65.18;100308.28;5016644;28;20505;-81
2022/08/06 03:19:59;;;;;;;20.25;10.82;;;;;;;23.97;65.36;100312.72;5017889;28;20034;-79
2022/08/06 03:22:30;;;;;;;19.00;10.50;;;;;;;23.94;65.05;100300.28;5017280;28;20116;-81
2022/08/06 03:24:58;;;;;;;23.65;10.80;;;;;;;24.05;64.54;100320.69;5016868;28;20484;-80
2022/08/06 03:27:24;;;;;;;16.23;11.25;;;;;;;23.97;64.41;100297.06;5020217;28;20468;-81
2022/08/06 03:29:51;;;;;;;16.60;10.57;;;;;;;24.03;64.05;100314.59;5017249;28;20030;-80
2022/08/06 03:32:20;;;;;;;21.52;12.95;;;;;;;24.08;64.37;100309.25;5017883;28;20030;-80
2022/08/06 03:34:46;;;;;;;18.52;11.15;;;;;;;24.04;63.92;100299.75;5016883;28;20065;-80
2022/08/06 03:37:13;;;;;;;15.45;11.20;;;;;;;24.02;64.21;100301.91;5016791;28;20030;-81
2022/08/06 03:39:41;;;;;;;17.40;11.48;;;;;;;24.10;64.20;100312.63;5017481;28;20551;-79
2022/08/06 03:42:07;;;;;;;19.08;10.10;;;;;;;24.07;64.14;100313.91;5017800;28;20049;-81
2022/08/06 03:44:33;;;;;;;28.45;11.55;;;;;;;24.07;64.30;100318.56;5017230;28;20065;-82
2022/08/06 03:47:03;;;;;;;24.20;10.85;;;;;;;24.09;64.20;100322.78;5017366;28;20088;-82
2022/08/06 03:49:55;;;;;;;19.23;13.05;;;;;;;24.03;64.32;100320.09;5016479;28;20105;-82
2022/08/06 03:52:24;;;;;;;20.80;12.57;;;;;;;24.00;64.55;100306.78;5007369;28;20037;-81
2022/08/06 03:54:54;;;;;;;22.38;12.38;;;;;;;23.96;64.67;100311.88;4999119;28;20041;-82
2022/08/06 03:57:25;;;;;;;16.83;11.63;;;;;;;24.07;64.62;100313.06;5025804;28;20079;-80
2022/08/06 03:59:58;;;;;;;26.67;12.85;;;;;;;24.09;64.79;100322.78;4996757;28;20030;-82
2022/08/06 04:02:28;;;;;;;23.50;13.18;;;;;;;24.10;64.87;100312.63;4996470;28;20029;-81
2022/08/06 04:04:54;;;;;;;17.00;14.30;;;;;;;24.12;65.28;100316.03;4996845;28;20484;-82
2022/08/06 04:07:20;;;;;;;24.75;16.38;;;;;;;24.08;65.72;100310.09;5015461;28;20029;-81
2022/08/06 04:09:46;;;;;;;26.17;16.27;;;;;;;24.10;66.28;100318.13;5032754;28;20033;-80
2022/08/06 04:12:12;;;;;;;27.30;17.73;;;;;;;24.11;66.80;100322.59;4998288;28;20030;-81
2022/08/06 04:14:38;;;;;;;28.95;17.90;;;;;;;24.11;66.77;100309.69;5016403;28;20033;-81
2022/08/06 04:17:05;;;;;;;23.63;16.58;;;;;;;24.16;66.76;100314.53;4997662;28;20057;-80
2022/08/06 04:19:33;;;;;;;23.20;17.02;;;;;;;24.22;66.85;100314.47;4997892;28;20034;-80
2022/08/06 04:21:59;;;;;;;26.35;17.55;;;;;;;24.25;66.57;100319.53;5015558;28;20022;-81
2022/08/06 04:24:24;;;;;;;35.97;18.35;;;;;;;24.25;66.97;100315.94;5015183;28;20052;-81
2022/08/06 04:26:53;;;;;;;28.45;19.17;;;;;;;24.36;66.59;100318.84;5019907;28;20447;-81
2022/08/06 04:29:21;;;;;;;32.35;18.17;;;;;;;24.30;66.90;100313.41;5035175;28;20379;-81
2022/08/06 04:31:50;;;;;;;29.70;17.58;;;;;;;24.39;66.97;100317.56;5035004;28;20108;-82
2022/08/06 04:34:21;;;;;;;29.00;17.42;;;;;;;24.44;67.08;100303.97;5001764;28;20049;-82
2022/08/06 04:36:47;;;;;;;27.45;17.98;;;;;;;24.50;66.93;100314.09;5015909;28;20029;-80
2022/08/06 04:39:14;;;;;;;32.00;19.17;;;;;;;24.48;66.94;100313.47;5032534;28;20056;-82
2022/08/06 04:41:40;;;;;;;27.00;18.08;;;;;;;24.57;66.79;100309.38;5035717;28;20025;-82
2022/08/06 04:44:05;;;;;;;28.08;18.38;;;;;;;24.62;66.86;100317.78;5018252;28;20025;-81
2022/08/06 04:46:33;;;;;;;33.10;19.15;;;;;;;24.69;66.59;100317.75;5017196;28;20036;-82
2022/08/06 04:48:58;;;;;;;33.45;17.98;;;;;;;24.72;66.65;100318.16;5035338;28;20036;-82
2022/08/06 04:51:24;;;;;;;28.70;18.98;;;;;;;24.77;66.94;100321.06;5036948;28;20029;-81
2022/08/06 04:53:50;;;;;;;24.75;17.33;;;;;;;24.73;66.57;100308.84;5034833;28;20032;-82
2022/08/06 04:56:15;;;;;;;48.38;19.45;;;;;;;24.92;66.44;100328.19;5036203;28;20033;-82
2022/08/06 04:58:41;;;;;;;32.45;17.05;;;;;;;24.98;65.96;100314.38;5016289;28;20037;-83
2022/08/06 05:01:06;;;;;;;34.50;18.30;;;;;;;25.16;65.78;100330.06;5016444;28;20030;-79
2022/08/06 05:03:32;;;;;;;33.95;16.38;;;;;;;25.18;65.78;100319.66;5015684;28;20030;-82
2022/08/06 05:06:15;;;;;;;40.30;17.63;;;;;;;25.23;65.86;100319.81;5015816;28;20400;-81
2022/08/06 05:08:43;;;;;;;38.85;17.23;;;;;;;25.31;65.61;100325.03;5006631;28;20034;-81
2022/08/06 05:11:28;;;;;;;25.25;15.55;;;;;;;25.32;65.52;100313.78;5016037;28;20404;-83
2022/08/06 05:14:01;;;;;;;20.33;14.65;;;;;;;25.40;64.84;100318.16;4998248;28;20069;-81
2022/08/06 05:16:30;;;;;;;12.35;9.23;;;;;;;25.50;64.31;100320.41;5018231;28;20045;-81
2022/08/06 05:19:04;;;;;;;26.48;11.63;;;;;;;25.59;63.43;100317.13;5017202;28;20037;-82
2022/08/06 05:21:37;;;;;;;25.25;12.18;;;;;;;25.75;63.46;100332.16;4995147;28;20033;-82
2022/08/06 05:24:03;;;;;;;19.98;10.73;;;;;;;25.77;62.87;100328.13;4995114;28;20409;-81
2022/08/06 05:26:29;;;;;;;25.25;11.80;;;;;;;25.97;62.50;100328.72;5026773;28;20087;-81
2022/08/06 05:28:55;;;;;;;19.88;11.43;;;;;;;26.04;62.11;100317.59;5014809;28;20038;-81
2022/08/06 05:31:37;;;;;;;15.10;10.27;;;;;;;26.17;61.58;100325.72;5013622;28;20129;-82
2022/08/06 05:34:09;;;;;;;21.08;8.80;;;;;;;26.29;60.61;100323.84;5013841;28;20026;-82
2022/08/06 05:36:34;;;;;;;24.33;9.48;;;;;;;26.43;60.23;100332.75;5013738;28;20440;-81
2022/08/06 05:39:00;;;;;;;23.25;9.05;;;;;;;26.44;59.87;100312.38;5013654;28;20029;-81
2022/08/06 05:41:28;;;;;;;12.57;8.98;;;;;;;26.67;59.18;100331.75;5014041;28;20053;-82
2022/08/06 05:43:53;;;;;;;14.80;8.75;;;;;;;26.80;58.93;100327.97;5014441;28;20033;-82
2022/08/06 05:46:21;;;;;;;16.67;8.30;;;;;;;26.93;58.45;100324.97;4997316;28;20036;-80
2022/08/06 05:48:59;;;;;;;29.75;12.07;;;;;;;26.84;59.10;100302.44;5014117;28;20373;-81
2022/08/06 05:51:43;;;;;;;25.35;11.88;;;;;;;26.95;59.77;100336.63;5014054;28;20030;-80
2022/08/06 05:54:23;;;;;;;32.08;16.88;;;;;;;26.96;59.18;100344.69;5022829;28;20056;-81
2022/08/06 05:56:51;;;;;;;31.98;19.70;;;;;;;26.93;58.80;100322.22;5016415;28;20042;-82
2022/08/06 05:59:22;;;;;;;22.85;11.30;;;;;;;27.11;58.40;100329.53;5013330;28;20474;-82
2022/08/06 06:01:49;;;;;;;18.07;9.87;;;;;;;27.14;57.93;100318.03;4995991;28;20026;-81
2022/08/06 06:04:15;;;;;;;21.02;10.88;;;;;;;27.35;58.19;100331.22;5013436;28;20511;-82
2022/08/06 06:06:41;;;;;;;13.55;9.40;;;;;;;27.43;57.46;100322.63;5013463;28;20030;-80
2022/08/06 06:09:07;;;;;;;21.70;10.13;;;;;;;27.45;58.14;100323.19;5003570;28;20021;-80
2022/08/06 06:11:34;;;;;;;20.27;10.80;;;;;;;27.46;57.97;100319.38;5033554;28;20035;-80
2022/08/06 06:14:00;;;;;;;20.27;9.68;;;;;;;27.51;58.04;100316.72;5033177;28;20851;-81
2022/08/06 06:16:53;;;;;;;30.00;10.07;;;;;;;27.52;58.08;100319.22;5003779;28;20120;-81
2022/08/06 06:19:56;;;;;;;15.45;10.00;;;;;;;27.51;58.83;100319.47;4994240;28;20104;-78
2022/08/06 06:22:34;;;;;;;26.42;12.18;;;;;;;27.46;59.21;100311.91;5011314;28;20026;-78
2022/08/06 06:25:03;;;;;;;25.13;11.27;;;;;;;27.43;59.21;100306.84;5012083;28;20030;-79
2022/08/06 06:27:28;;;;;;;17.52;11.05;;;;;;;27.56;58.94;100317.66;5012148;28;20025;-83
2022/08/06 06:30:06;;;;;;;23.65;10.18;;;;;;;27.66;58.91;100307.91;5013830;28;20480;-82
2022/08/06 06:32:52;;;;;;;22.73;9.27;;;;;;;27.69;57.92;100316.56;5013488;28;20025;-82
2022/08/06 06:35:46;;;;;;;17.88;9.98;;;;;;;27.64;58.46;100313.69;5013417;28;20046;-83
2022/08/06 06:38:20;;;;;;;13.73;9.00;;;;;;;27.60;58.24;100306.13;5013731;28;20524;-81
2022/08/06 06:41:02;;;;;;;18.88;9.75;;;;;;;27.64;58.62;100301.78;4999107;28;20487;-81
2022/08/06 06:43:53;;;;;;;14.85;8.73;;;;;;;27.74;58.39;100313.03;5021899;28;20050;-82
2022/08/06 06:47:01;;;;;;;18.83;10.10;;;;;;;27.64;58.22;100312.84;5012334;28;20026;-81
2022/08/06 06:49:35;;;;;;;19.67;10.40;;;;;;;27.63;58.36;100319.44;5014794;28;20026;-83
2022/08/06 06:52:16;;;;;;;17.38;12.93;;;;;;;27.64;58.45;100313.69;5016600;28;20026;-80
2022/08/06 06:54:47;;;;;;;22.52;10.10;;;;;;;27.76;58.50;100322.78;5016659;28;20026;-81
2022/08/06 06:57:18;;;;;;;11.93;9.05;;;;;;;27.77;58.57;100318.06;5016352;28;20041;-81
2022/08/06 06:59:47;;;;;;;15.57;10.43;;;;;;;27.65;58.57;100309.81;5016593;28;20049;-81
2022/08/06 07:02:24;;;;;;;20.85;8.75;;;;;;;27.75;58.45;100310.03;5016816;28;20034;-81
2022/08/06 07:04:51;;;;;;;12.98;8.68;;;;;;;27.79;58.56;100319.53;4998742;28;20025;-81
2022/08/06 07:07:18;;;;;;;14.32;9.15;;;;;;;27.81;59.15;100309.06;5017373;28;20040;-80
2022/08/06 07:09:45;;;;;;;16.23;10.23;;;;;;;27.88;58.73;100312.53;5017117;28;20084;-80
2022/08/06 07:12:13;;;;;;;36.97;11.18;;;;;;;27.89;58.80;100322.50;5016751;28;20033;-80
2022/08/06 07:14:40;;;;;;;15.95;9.25;;;;;;;27.89;58.49;100305.91;5017178;28;20018;-80
2022/08/06 07:17:07;;;;;;;24.80;9.98;;;;;;;28.10;58.39;100312.72;5016838;28;20073;-79
2022/08/06 07:19:33;;;;;;;23.27;8.80;;;;;;;28.20;57.05;100303.75;5016632;28;20376;-80
2022/08/06 07:22:00;;;;;;;24.90;8.63;;;;;;;28.30;55.81;100312.25;4999045;28;20053;-81
2022/08/06 07:24:30;;;;;;;23.08;8.85;;;;;;;28.38;55.37;100298.00;5016877;28;20048;-80
2022/08/06 07:26:57;;;;;;;14.80;8.55;;;;;;;28.43;54.86;100300.91;4998790;28;20022;-81
2022/08/06 07:29:24;;;;;;;15.50;8.27;;;;;;;28.54;54.89;100313.81;5016420;28;20022;-81
2022/08/06 07:31:50;;;;;;;11.50;8.30;;;;;;;28.69;54.33;100307.72;5016604;28;20045;-81
2022/08/06 07:34:16;;;;;;;14.13;8.13;;;;;;;28.80;53.73;100302.13;5016168;28;20026;-81
2022/08/06 07:36:48;;;;;;;22.52;8.02;;;;;;;28.90;53.75;100299.50;5016946;28;20106;-81
2022/08/06 07:39:21;;;;;;;12.63;7.82;;;;;;;29.07;52.98;100308.66;5016786;28;20116;-81
2022/08/06 07:41:49;;;;;;;15.50;8.48;;;;;;;29.21;52.85;100305.50;5016521;28;20548;-81
2022/08/06 07:44:15;;;;;;;12.88;7.43;;;;;;;29.27;52.51;100304.53;5014747;28;20030;-81
2022/08/06 07:46:49;;;;;;;11.98;7.80;;;;;;;29.41;52.73;100308.63;5016324;28;20056;-81
2022/08/06 07:49:20;;;;;;;15.60;7.60;;;;;;;29.60;52.08;100308.03;5016725;28;20032;-80
2022/08/06 07:51:47;;;;;;;16.77;7.65;;;;;;;29.63;52.19;100301.19;5016373;28;20046;-81
2022/08/06 07:54:15;;;;;;;21.90;8.40;;;;;;;29.68;52.28;100301.22;5016343;28;20021;-81
2022/08/06 07:56:42;;;;;;;12.48;8.75;;;;;;;29.80;52.86;100301.09;5015584;28;20028;-81
2022/08/06 07:59:09;;;;;;;16.45;8.73;;;;;;;29.79;52.87;100311.34;5016858;28;20028;-81
2022/08/06 08:01:36;;;;;;;15.75;8.23;;;;;;;29.78;52.88;100314.38;5014995;28;20400;-80
2022/08/06 08:06:51;;;;;;;14.10;11.10;;;;;;;29.80;53.63;100313.03;5015851;28;20036;-81
2022/08/06 08:09:18;;;;;;;24.05;10.07;;;;;;;29.89;53.18;100297.66;5016148;28;20160;-82
2022/08/06 08:11:46;;;;;;;12.43;8.15;;;;;;;30.03;53.04;100307.22;5016285;28;20033;-82
2022/08/06 08:14:18;;;;;;;13.85;9.10;;;;;;;30.08;53.43;100310.09;5016561;28;20022;-81
2022/08/06 08:16:44;;;;;;;21.00;7.72;;;;;;;30.10;53.72;100302.31;5015121;28;20103;-80
2022/08/06 08:19:32;;;;;;;18.55;8.63;;;;;;;30.12;53.24;100308.44;5015597;28;20041;-80
2022/08/06 08:22:14;;;;;;;16.48;8.35;;;;;;;30.08;52.56;100298.97;5015509;28;20033;-81
2022/08/06 08:24:40;;;;;;;11.93;7.25;;;;;;;30.02;52.08;100300.03;5014921;28;20034;-79
2022/08/06 08:27:09;;;;;;;16.02;7.10;;;;;;;30.03;51.58;100307.22;5015005;28;20022;-80
2022/08/06 08:29:35;;;;;;;15.90;7.38;;;;;;;29.98;50.83;100309.09;5016350;28;20025;-81
2022/08/06 08:32:01;;;;;;;12.98;6.88;;;;;;;29.90;51.00;100307.66;5015175;28;20029;-81
2022/08/06 08:34:27;;;;;;;13.18;6.32;;;;;;;29.84;50.64;100303.13;5014961;28;20022;-80
2022/08/06 08:36:52;;;;;;;12.27;6.68;;;;;;;29.86;50.65;100313.97;5015515;28;20032;-81
2022/08/06 08:39:18;;;;;;;17.70;7.05;;;;;;;29.85;50.95;100315.03;5015726;28;20060;-80
2022/08/06 08:41:53;;;;;;;8.70;7.38;;;;;;;29.81;52.06;100320.25;5015848;28;20030;-79
2022/08/06 08:44:24;;;;;;;12.15;6.75;;;;;;;29.83;51.75;100312.53;5015945;28;20029;-80
2022/08/06 08:46:51;;;;;;;10.60;6.97;;;;;;;29.76;51.62;100311.84;5015073;28;20026;-80
2022/08/06 08:49:21;;;;;;;10.73;7.00;;;;;;;29.86;51.98;100317.56;5016494;28;20261;-82
2022/08/06 08:51:48;;;;;;;11.65;6.72;;;;;;;29.95;51.52;100315.19;5016660;28;20495;-81
2022/08/06 08:54:18;;;;;;;10.35;6.35;;;;;;;29.99;51.42;100310.78;5017001;28;20026;-81
2022/08/06 08:56:48;;;;;;;12.95;7.18;;;;;;;30.07;51.01;100322.25;5016138;28;20045;-81
2022/08/06 08:59:15;;;;;;;13.63;6.28;;;;;;;30.12;49.76;100316.75;5016060;28;20404;-82
2022/08/06 09:01:41;;;;;;;14.77;5.78;;;;;;;30.22;49.73;100321.59;5016617;28;20400;-82
2022/08/06 09:04:07;;;;;;;33.45;6.38;;;;;;;30.35;49.90;100317.56;5015545;28;20033;-82
2022/08/06 09:06:37;;;;;;;11.00;6.13;;;;;;;30.38;49.71;100319.81;5015899;28;20029;-81
2022/08/06 09:09:04;;;;;;;12.43;6.03;;;;;;;30.45;48.08;100321.31;5015001;28;20030;-80
2022/08/06 09:11:33;;;;;;;12.82;5.63;;;;;;;30.50;45.72;100328.84;5014652;28;20018;-82
2022/08/06 09:14:04;;;;;;;7.72;5.38;;;;;;;30.37;46.47;100318.13;5015152;28;20026;-81
2022/08/06 09:16:31;;;;;;;10.05;5.55;;;;;;;30.38;47.20;100323.44;5014843;28;20050;-80
2022/08/06 09:18:57;;;;;;;9.35;6.25;;;;;;;30.37;48.12;100323.69;5014865;28;20114;-81
2022/08/06 09:21:23;;;;;;;6.47;5.53;;;;;;;30.26;48.66;100321.91;5014849;28;20068;-81
2022/08/06 09:23:49;;;;;;;7.93;5.90;;;;;;;30.30;48.33;100318.38;5015433;28;20026;-82
2022/08/06 09:26:14;;;;;;;10.50;6.22;;;;;;;30.22;51.11;100324.38;5015008;28;20812;-80
2022/08/06 09:28:43;;;;;;;14.68;6.55;;;;;;;29.90;52.01;100318.75;5014524;28;20026;-81
2022/08/06 09:31:11;;;;;;;10.07;6.53;;;;;;;29.83;53.71;100333.88;5015156;28;20033;-81
2022/08/06 09:33:39;;;;;;;8.23;6.50;;;;;;;29.95;53.68;100332.66;5015163;28;20071;-80
2022/08/06 09:36:08;;;;;;;11.80;6.45;;;;;;;30.09;53.31;100333.94;5014823;28;20413;-80
2022/08/06 09:38:49;;;;;;;8.27;6.78;;;;;;;30.05;51.85;100326.41;5014356;28;20593;-81
2022/08/06 09:41:16;;;;;;;19.33;7.10;;;;;;;30.17;53.23;100327.94;5014022;28;20033;-80
2022/08/06 09:43:44;;;;;;;12.43;6.90;;;;;;;30.18;53.54;100321.28;5013962;28;20026;-79
2022/08/06 09:46:09;;;;;;;16.38;6.70;;;;;;;30.30;53.22;100323.06;5014396;28;20536;-80
2022/08/06 09:48:35;;;;;;;13.35;6.07;;;;;;;30.37;52.90;100330.06;5014309;28;20028;-80
2022/08/06 09:51:01;;;;;;;8.35;5.75;;;;;;;30.22;49.74;100322.44;5013948;28;20032;-80
2022/08/06 09:53:27;;;;;;;12.00;6.00;;;;;;;30.14;53.37;100319.28;4996139;28;20108;-80
2022/08/06 09:55:55;;;;;;;9.52;7.55;;;;;;;30.07;54.45;100325.03;4996533;28;20065;-80
2022/08/06 09:58:29;;;;;;;9.25;7.05;;;;;;;30.06;54.25;100330.88;5013463;28;20030;-81
2022/08/06 10:00:55;;;;;;;12.88;6.57;;;;;;;29.75;53.69;100329.63;5013329;28;20049;-80
2022/08/06 10:03:20;;;;;;;8.93;7.15;;;;;;;29.70;55.49;100335.91;5013104;28;20021;-80
2022/08/06 10:05:46;;;;;;;12.70;6.60;;;;;;;29.58;56.85;100342.66;5013314;28;20022;-80
2022/08/06 10:08:17;;;;;;;12.60;7.00;;;;;;;29.60;57.65;100334.97;5013088;28;20021;-79
2022/08/06 10:10:44;;;;;;;8.75;7.25;;;;;;;29.78;57.42;100334.66;4995506;28;20466;-81
2022/08/06 10:13:23;;;;;;;17.58;8.23;;;;;;;29.88;56.26;100343.09;5013032;28;20408;-81
2022/08/06 10:15:49;;;;;;;19.60;7.68;;;;;;;29.84;57.07;100343.88;5013604;28;20045;-80
2022/08/06 10:18:36;;;;;;;10.20;7.55;;;;;;;29.95;57.62;100343.75;5011839;28;20053;-80
2022/08/06 10:21:03;;;;;;;25.33;8.85;;;;;;;29.84;57.60;100347.50;5013325;28;20034;-79
2022/08/06 10:23:32;;;;;;;10.55;7.97;;;;;;;29.79;58.23;100355.72;4995105;28;20104;-81
2022/08/06 10:25:57;;;;;;;10.23;7.30;;;;;;;29.66;58.72;100356.09;5013989;28;20056;-79
2022/08/06 10:28:26;;;;;;;13.48;8.30;;;;;;;29.50;58.85;100346.72;5013120;28;20109;-80
2022/08/06 10:30:53;;;;;;;21.88;7.35;;;;;;;29.52;58.36;100346.47;5013190;28;20384;-80
2022/08/06 10:33:19;;;;;;;12.60;7.28;;;;;;;29.47;58.37;100343.63;5013078;28;20029;-80
2022/08/06 10:35:47;;;;;;;12.63;8.38;;;;;;;29.67;57.86;100347.50;5013310;28;20425;-79
2022/08/06 10:38:16;;;;;;;17.15;7.70;;;;;;;29.73;58.01;100342.03;5013229;28;20075;-79
2022/08/06 10:40:43;;;;;;;9.02;7.32;;;;;;;29.78;56.95;100342.97;5013272;28;20022;-80
2022/08/06 10:43:10;;;;;;;10.10;6.90;;;;;;;29.83;55.02;100340.28;5013461;28;20022;-81
2022/08/06 10:45:38;;;;;;;14.00;6.45;;;;;;;30.07;55.79;100344.47;5013582;28;20163;-81
2022/08/06 10:48:04;;;;;;;17.35;6.93;;;;;;;30.35;52.89;100334.22;5013431;28;20034;-80
2022/08/06 10:50:30;;;;;;;15.95;6.05;;;;;;;30.63;51.17;100334.81;5013640;28;20053;-80
2022/08/06 10:52:57;;;;;;;12.77;6.78;;;;;;;30.77;52.40;100329.66;5013297;28;20042;-81
2022/08/06 10:55:23;;;;;;;9.52;6.80;;;;;;;30.85;51.39;100331.97;5013886;28;20053;-79
2022/08/06 10:57:49;;;;;;;8.65;6.10;;;;;;;30.57;52.95;100324.78;5013432;28;20021;-81
2022/08/06 11:00:14;;;;;;;9.75;7.22;;;;;;;30.42;54.73;100329.34;5013682;28;20137;-80
2022/08/06 11:02:56;;;;;;;20.13;7.28;;;;;;;30.45;55.19;100337.13;5013834;28;20113;-80
2022/08/06 11:05:27;;;;;;;10.75;8.30;;;;;;;30.18;55.03;100331.56;5013223;28;20034;-80
2022/08/06 11:08:17;;;;;;;11.32;7.85;;;;;;;30.07;57.88;100332.50;5012644;28;20033;-80
2022/08/06 11:10:42;;;;;;;21.88;9.80;;;;;;;29.93;58.25;100334.88;5013192;28;20025;-81
2022/08/06 11:13:19;;;;;;;9.77;8.15;;;;;;;29.82;59.42;100338.59;4995211;28;20026;-81
2022/08/06 11:15:47;;;;;;;11.27;7.72;;;;;;;29.56;59.71;100328.25;5012834;28;20033;-80
2022/08/06 11:18:13;;;;;;;9.70;7.30;;;;;;;29.52;58.80;100338.16;4994416;28;20535;-80
2022/08/06 11:20:42;;;;;;;13.88;8.20;;;;;;;29.54;58.83;100336.78;4993414;28;20026;-80
2022/08/06 11:23:11;;;;;;;13.07;7.70;;;;;;;29.53;58.12;100337.06;4993163;28;20022;-80
2022/08/06 11:25:40;;;;;;;17.67;7.50;;;;;;;29.62;56.32;100338.31;4993615;28;20030;-81
2022/08/06 11:28:16;;;;;;;10.57;7.18;;;;;;;29.73;56.19;100345.66;4993123;28;20110;-80
2022/08/06 11:30:42;;;;;;;9.57;7.65;;;;;;;29.79;54.49;100350.16;4993728;28;20469;-81